sensor_id;sensor_type;location;lat;lon;timestamp;temperature;humidity
6270;DHT22;3168;51.684;6.954;2022-07-29T00:00:51;19.10;1.00
6270;DHT22;3168;51.684;6.954;2022-07-29T00:03:29;19.10;1.00
6270;DHT22;3168;51.684;6.954;2022-07-29T00:06:07;19.00;1.00
6270;DHT22;3168;51.684;6.954;2022-07-29T00:08:46;19.00;1.00
6270;DHT22;3168;51.684;6.954;2022-07-29T00:11:24;19.00;1.00
6270;DHT22;3168;51.684;6.954;2022-07-29T00:14:02;18.90;1.00
6270;DHT22;3168;51.684;6.954;2022-07-29T00:16:40;18.90;1.00
6270;DHT22;3168;51.684;6.954;2022-07-29T00:19:18;19.00;1.00
6270;DHT22;3168;51.684;6.954;2022-07-29T00:21:56;19.00;1.00
6270;DHT22;3168;51.684;6.954;2022-07-29T00:24:35;19.00;1.00
6270;DHT22;3168;51.684;6.954;2022-07-29T00:27:13;19.00;1.00
6270;DHT22;3168;51.684;6.954;2022-07-29T00:29:51;18.90;1.00
6270;DHT22;3168;51.684;6.954;2022-07-29T00:32:29;18.90;1.00
6270;DHT22;3168;51.684;6.954;2022-07-29T00:35:08;18.90;1.00
6270;DHT22;3168;51.684;6.954;2022-07-29T00:37:52;18.90;1.00
6270;DHT22;3168;51.684;6.954;2022-07-29T00:40:30;18.90;1.00
6270;DHT22;3168;51.684;6.954;2022-07-29T00:43:09;18.90;1.00
6270;DHT22;3168;51.684;6.954;2022-07-29T00:45:47;18.90;1.00
6270;DHT22;3168;51.684;6.954;2022-07-29T00:48:25;18.90;1.00
6270;DHT22;3168;51.684;6.954;2022-07-29T00:51:04;18.80;1.00
6270;DHT22;3168;51.684;6.954;2022-07-29T00:53:41;18.70;1.00
6270;DHT22;3168;51.684;6.954;2022-07-29T00:56:19;18.70;1.00
6270;DHT22;3168;51.684;6.954;2022-07-29T00:58:58;18.70;1.00
6270;DHT22;3168;51.684;6.954;2022-07-29T01:01:36;18.60;1.00
6270;DHT22;3168;51.684;6.954;2022-07-29T01:04:14;18.60;1.00
6270;DHT22;3168;51.684;6.954;2022-07-29T01:06:52;18.50;1.00
6270;DHT22;3168;51.684;6.954;2022-07-29T01:09:32;18.50;1.00
6270;DHT22;3168;51.684;6.954;2022-07-29T01:12:09;18.50;1.00
6270;DHT22;3168;51.684;6.954;2022-07-29T01:14:47;18.50;1.00
6270;DHT22;3168;51.684;6.954;2022-07-29T01:17:28;18.50;1.00
6270;DHT22;3168;51.684;6.954;2022-07-29T01:20:10;18.50;1.00
6270;DHT22;3168;51.684;6.954;2022-07-29T01:26:04;18.40;1.00
6270;DHT22;3168;51.684;6.954;2022-07-29T01:28:51;18.40;1.00
6270;DHT22;3168;51.684;6.954;2022-07-29T01:31:35;18.40;1.00
6270;DHT22;3168;51.684;6.954;2022-07-29T01:34:15;18.30;1.00
6270;DHT22;3168;51.684;6.954;2022-07-29T01:37:04;18.30;1.00
6270;DHT22;3168;51.684;6.954;2022-07-29T01:39:39;18.30;1.00
6270;DHT22;3168;51.684;6.954;2022-07-29T01:42:23;18.30;1.00
6270;DHT22;3168;51.684;6.954;2022-07-29T01:45:02;18.30;1.00
6270;DHT22;3168;51.684;6.954;2022-07-29T01:47:56;18.20;1.00
6270;DHT22;3168;51.684;6.954;2022-07-29T01:50:34;18.10;1.00
6270;DHT22;3168;51.684;6.954;2022-07-29T01:53:11;18.00;1.00
6270;DHT22;3168;51.684;6.954;2022-07-29T01:55:49;18.00;1.00
6270;DHT22;3168;51.684;6.954;2022-07-29T01:58:28;18.00;1.00
6270;DHT22;3168;51.684;6.954;2022-07-29T02:01:05;18.00;1.00
6270;DHT22;3168;51.684;6.954;2022-07-29T02:03:44;18.00;1.00
6270;DHT22;3168;51.684;6.954;2022-07-29T02:06:22;17.90;1.00
6270;DHT22;3168;51.684;6.954;2022-07-29T02:09:01;17.70;1.00
6270;DHT22;3168;51.684;6.954;2022-07-29T02:11:39;17.70;1.00
6270;DHT22;3168;51.684;6.954;2022-07-29T02:14:18;17.70;1.00
6270;DHT22;3168;51.684;6.954;2022-07-29T02:16:56;17.60;1.00
6270;DHT22;3168;51.684;6.954;2022-07-29T02:19:34;17.60;1.00
6270;DHT22;3168;51.684;6.954;2022-07-29T02:22:13;17.60;1.00
6270;DHT22;3168;51.684;6.954;2022-07-29T02:24:51;17.60;1.00
6270;DHT22;3168;51.684;6.954;2022-07-29T02:27:30;17.50;1.00
6270;DHT22;3168;51.684;6.954;2022-07-29T02:30:08;17.30;1.00
6270;DHT22;3168;51.684;6.954;2022-07-29T02:32:46;17.10;1.00
6270;DHT22;3168;51.684;6.954;2022-07-29T02:35:25;17.00;1.00
6270;DHT22;3168;51.684;6.954;2022-07-29T02:38:03;17.00;1.00
6270;DHT22;3168;51.684;6.954;2022-07-29T02:40:47;17.00;1.00
6270;DHT22;3168;51.684;6.954;2022-07-29T02:43:26;17.00;1.00
6270;DHT22;3168;51.684;6.954;2022-07-29T02:46:04;17.00;1.00
6270;DHT22;3168;51.684;6.954;2022-07-29T02:48:43;17.00;1.00
6270;DHT22;3168;51.684;6.954;2022-07-29T02:51:29;16.90;1.00
6270;DHT22;3168;51.684;6.954;2022-07-29T02:54:09;16.80;1.00
6270;DHT22;3168;51.684;6.954;2022-07-29T02:56:47;16.70;1.00
6270;DHT22;3168;51.684;6.954;2022-07-29T02:59:26;16.70;1.00
6270;DHT22;3168;51.684;6.954;2022-07-29T03:02:04;16.70;1.00
6270;DHT22;3168;51.684;6.954;2022-07-29T03:04:42;16.80;1.00
6270;DHT22;3168;51.684;6.954;2022-07-29T03:07:20;17.00;1.00
6270;DHT22;3168;51.684;6.954;2022-07-29T03:09:58;17.00;1.00
6270;DHT22;3168;51.684;6.954;2022-07-29T03:12:37;17.00;1.00
6270;DHT22;3168;51.684;6.954;2022-07-29T03:15:15;16.90;1.00
6270;DHT22;3168;51.684;6.954;2022-07-29T03:17:53;16.90;1.00
6270;DHT22;3168;51.684;6.954;2022-07-29T03:20:31;17.00;1.00
6270;DHT22;3168;51.684;6.954;2022-07-29T03:23:09;17.00;1.00
6270;DHT22;3168;51.684;6.954;2022-07-29T03:25:48;17.10;1.00
6270;DHT22;3168;51.684;6.954;2022-07-29T03:28:26;17.10;1.00
6270;DHT22;3168;51.684;6.954;2022-07-29T03:31:04;17.20;1.00
6270;DHT22;3168;51.684;6.954;2022-07-29T03:33:42;17.20;1.00
6270;DHT22;3168;51.684;6.954;2022-07-29T03:36:20;17.20;1.00
6270;DHT22;3168;51.684;6.954;2022-07-29T03:38:59;17.10;1.00
6270;DHT22;3168;51.684;6.954;2022-07-29T03:41:37;17.00;1.00
6270;DHT22;3168;51.684;6.954;2022-07-29T03:44:15;17.00;1.00
6270;DHT22;3168;51.684;6.954;2022-07-29T03:46:54;17.10;1.00
6270;DHT22;3168;51.684;6.954;2022-07-29T03:49:32;17.00;1.00
6270;DHT22;3168;51.684;6.954;2022-07-29T03:52:10;16.70;1.00
6270;DHT22;3168;51.684;6.954;2022-07-29T03:54:48;16.70;1.00
6270;DHT22;3168;51.684;6.954;2022-07-29T03:57:27;16.70;1.00
6270;DHT22;3168;51.684;6.954;2022-07-29T04:00:06;16.60;1.00
6270;DHT22;3168;51.684;6.954;2022-07-29T04:02:44;16.60;1.00
6270;DHT22;3168;51.684;6.954;2022-07-29T04:05:23;16.60;1.00
6270;DHT22;3168;51.684;6.954;2022-07-29T04:08:01;16.60;1.00
6270;DHT22;3168;51.684;6.954;2022-07-29T04:10:39;16.60;1.00
6270;DHT22;3168;51.684;6.954;2022-07-29T04:13:18;16.50;1.00
6270;DHT22;3168;51.684;6.954;2022-07-29T04:15:56;16.50;1.00
6270;DHT22;3168;51.684;6.954;2022-07-29T04:18:34;16.50;1.00
6270;DHT22;3168;51.684;6.954;2022-07-29T04:21:12;16.50;1.00
6270;DHT22;3168;51.684;6.954;2022-07-29T04:23:50;16.50;1.00
6270;DHT22;3168;51.684;6.954;2022-07-29T04:26:28;16.30;1.00
6270;DHT22;3168;51.684;6.954;2022-07-29T04:29:06;16.30;1.00
6270;DHT22;3168;51.684;6.954;2022-07-29T04:31:45;16.30;1.00
6270;DHT22;3168;51.684;6.954;2022-07-29T04:34:23;16.00;1.00
6270;DHT22;3168;51.684;6.954;2022-07-29T04:37:01;15.50;15.40
6270;DHT22;3168;51.684;6.954;2022-07-29T04:39:39;15.30;30.70
6270;DHT22;3168;51.684;6.954;2022-07-29T04:42:18;15.10;53.90
6270;DHT22;3168;51.684;6.954;2022-07-29T04:44:56;15.00;55.00
6270;DHT22;3168;51.684;6.954;2022-07-29T04:47:34;14.90;59.20
6270;DHT22;3168;51.684;6.954;2022-07-29T04:50:12;14.80;68.40
6270;DHT22;3168;51.684;6.954;2022-07-29T04:52:50;14.90;75.70
6270;DHT22;3168;51.684;6.954;2022-07-29T04:55:28;14.80;85.10
6270;DHT22;3168;51.684;6.954;2022-07-29T04:58:06;14.60;82.00
6270;DHT22;3168;51.684;6.954;2022-07-29T05:00:44;14.50;83.50
6270;DHT22;3168;51.684;6.954;2022-07-29T05:03:22;14.40;91.90
6270;DHT22;3168;51.684;6.954;2022-07-29T05:06:00;14.40;93.80
6270;DHT22;3168;51.684;6.954;2022-07-29T05:08:38;14.20;93.90
6270;DHT22;3168;51.684;6.954;2022-07-29T05:11:17;14.10;94.90
6270;DHT22;3168;51.684;6.954;2022-07-29T05:13:55;14.20;94.00
6270;DHT22;3168;51.684;6.954;2022-07-29T05:16:33;14.10;93.50
6270;DHT22;3168;51.684;6.954;2022-07-29T05:19:11;14.10;95.50
6270;DHT22;3168;51.684;6.954;2022-07-29T05:21:49;14.10;94.10
6270;DHT22;3168;51.684;6.954;2022-07-29T05:24:28;14.10;91.50
6270;DHT22;3168;51.684;6.954;2022-07-29T05:27:06;14.10;92.50
6270;DHT22;3168;51.684;6.954;2022-07-29T05:29:44;14.00;93.10
6270;DHT22;3168;51.684;6.954;2022-07-29T05:32:22;14.10;94.00
6270;DHT22;3168;51.684;6.954;2022-07-29T05:35:00;14.30;94.60
6270;DHT22;3168;51.684;6.954;2022-07-29T05:37:38;14.50;93.80
6270;DHT22;3168;51.684;6.954;2022-07-29T05:40:16;14.50;93.60
6270;DHT22;3168;51.684;6.954;2022-07-29T05:42:55;14.60;93.40
6270;DHT22;3168;51.684;6.954;2022-07-29T05:45:33;14.70;92.60
6270;DHT22;3168;51.684;6.954;2022-07-29T05:48:11;14.50;90.70
6270;DHT22;3168;51.684;6.954;2022-07-29T05:50:49;14.40;94.20
6270;DHT22;3168;51.684;6.954;2022-07-29T05:53:28;14.50;95.80
6270;DHT22;3168;51.684;6.954;2022-07-29T05:56:06;14.70;97.10
6270;DHT22;3168;51.684;6.954;2022-07-29T05:58:44;14.80;95.30
6270;DHT22;3168;51.684;6.954;2022-07-29T06:01:22;14.80;95.30
6270;DHT22;3168;51.684;6.954;2022-07-29T06:04:00;14.80;96.10
6270;DHT22;3168;51.684;6.954;2022-07-29T06:06:39;14.80;96.10
6270;DHT22;3168;51.684;6.954;2022-07-29T06:09:17;14.60;95.90
6270;DHT22;3168;51.684;6.954;2022-07-29T06:11:55;14.40;96.50
6270;DHT22;3168;51.684;6.954;2022-07-29T06:14:33;14.30;97.60
6270;DHT22;3168;51.684;6.954;2022-07-29T06:17:11;14.10;98.70
6270;DHT22;3168;51.684;6.954;2022-07-29T06:19:49;14.20;99.90
6270;DHT22;3168;51.684;6.954;2022-07-29T06:22:28;14.10;99.90
6270;DHT22;3168;51.684;6.954;2022-07-29T06:25:06;14.00;99.90
6270;DHT22;3168;51.684;6.954;2022-07-29T06:27:44;14.10;99.90
6270;DHT22;3168;51.684;6.954;2022-07-29T06:30:23;13.90;99.90
6270;DHT22;3168;51.684;6.954;2022-07-29T06:33:01;13.90;99.90
6270;DHT22;3168;51.684;6.954;2022-07-29T06:35:39;13.90;99.90
6270;DHT22;3168;51.684;6.954;2022-07-29T06:38:17;13.90;99.90
6270;DHT22;3168;51.684;6.954;2022-07-29T06:40:56;13.90;99.90
6270;DHT22;3168;51.684;6.954;2022-07-29T06:43:39;13.90;99.90
6270;DHT22;3168;51.684;6.954;2022-07-29T06:46:16;14.00;99.90
6270;DHT22;3168;51.684;6.954;2022-07-29T06:48:56;14.00;99.90
6270;DHT22;3168;51.684;6.954;2022-07-29T06:51:34;14.00;99.90
6270;DHT22;3168;51.684;6.954;2022-07-29T06:54:12;14.00;99.90
6270;DHT22;3168;51.684;6.954;2022-07-29T06:56:50;13.90;99.90
6270;DHT22;3168;51.684;6.954;2022-07-29T06:59:29;14.10;99.90
6270;DHT22;3168;51.684;6.954;2022-07-29T07:02:07;14.10;99.90
6270;DHT22;3168;51.684;6.954;2022-07-29T07:04:45;14.10;99.90
6270;DHT22;3168;51.684;6.954;2022-07-29T07:07:23;14.10;99.90
6270;DHT22;3168;51.684;6.954;2022-07-29T07:10:02;14.20;99.90
6270;DHT22;3168;51.684;6.954;2022-07-29T07:12:40;14.20;99.90
6270;DHT22;3168;51.684;6.954;2022-07-29T07:15:18;14.30;99.90
6270;DHT22;3168;51.684;6.954;2022-07-29T07:17:57;14.30;99.90
6270;DHT22;3168;51.684;6.954;2022-07-29T07:20:35;14.50;99.90
6270;DHT22;3168;51.684;6.954;2022-07-29T07:23:13;14.70;99.90
6270;DHT22;3168;51.684;6.954;2022-07-29T07:25:51;14.80;99.90
6270;DHT22;3168;51.684;6.954;2022-07-29T07:28:30;14.70;99.90
6270;DHT22;3168;51.684;6.954;2022-07-29T07:31:08;14.90;99.90
6270;DHT22;3168;51.684;6.954;2022-07-29T07:33:46;14.90;99.90
6270;DHT22;3168;51.684;6.954;2022-07-29T07:36:24;15.00;99.90
6270;DHT22;3168;51.684;6.954;2022-07-29T07:39:02;15.10;99.90
6270;DHT22;3168;51.684;6.954;2022-07-29T07:41:40;15.20;99.90
6270;DHT22;3168;51.684;6.954;2022-07-29T07:44:19;15.30;99.90
6270;DHT22;3168;51.684;6.954;2022-07-29T07:46:57;15.30;99.90
6270;DHT22;3168;51.684;6.954;2022-07-29T07:49:35;15.30;99.90
6270;DHT22;3168;51.684;6.954;2022-07-29T07:52:14;15.20;99.90
6270;DHT22;3168;51.684;6.954;2022-07-29T07:54:52;15.30;99.90
6270;DHT22;3168;51.684;6.954;2022-07-29T07:57:30;15.40;99.90
6270;DHT22;3168;51.684;6.954;2022-07-29T08:00:08;15.40;99.90
6270;DHT22;3168;51.684;6.954;2022-07-29T08:02:47;15.50;99.90
6270;DHT22;3168;51.684;6.954;2022-07-29T08:05:25;15.50;99.90
6270;DHT22;3168;51.684;6.954;2022-07-29T08:08:04;15.40;99.90
6270;DHT22;3168;51.684;6.954;2022-07-29T08:10:42;15.30;99.90
6270;DHT22;3168;51.684;6.954;2022-07-29T08:13:26;15.40;99.90
6270;DHT22;3168;51.684;6.954;2022-07-29T08:16:06;15.20;99.90
6270;DHT22;3168;51.684;6.954;2022-07-29T08:18:49;15.20;99.90
6270;DHT22;3168;51.684;6.954;2022-07-29T08:21:27;15.10;99.90
6270;DHT22;3168;51.684;6.954;2022-07-29T08:24:06;15.00;99.90
6270;DHT22;3168;51.684;6.954;2022-07-29T08:26:50;15.00;99.90
6270;DHT22;3168;51.684;6.954;2022-07-29T08:29:29;15.10;99.90
6270;DHT22;3168;51.684;6.954;2022-07-29T08:32:07;15.20;99.90
6270;DHT22;3168;51.684;6.954;2022-07-29T08:34:45;15.30;99.90
6270;DHT22;3168;51.684;6.954;2022-07-29T08:37:23;15.30;99.90
6270;DHT22;3168;51.684;6.954;2022-07-29T08:40:02;15.40;99.90
6270;DHT22;3168;51.684;6.954;2022-07-29T08:42:40;15.40;99.90
6270;DHT22;3168;51.684;6.954;2022-07-29T08:45:18;15.40;99.90
6270;DHT22;3168;51.684;6.954;2022-07-29T08:47:56;15.30;99.90
6270;DHT22;3168;51.684;6.954;2022-07-29T08:50:35;15.20;99.90
6270;DHT22;3168;51.684;6.954;2022-07-29T08:53:14;15.30;99.90
6270;DHT22;3168;51.684;6.954;2022-07-29T08:55:51;15.40;99.90
6270;DHT22;3168;51.684;6.954;2022-07-29T08:58:31;15.40;99.90
6270;DHT22;3168;51.684;6.954;2022-07-29T09:01:07;15.40;99.90
6270;DHT22;3168;51.684;6.954;2022-07-29T09:03:45;15.40;99.90
6270;DHT22;3168;51.684;6.954;2022-07-29T09:06:23;15.40;99.90
6270;DHT22;3168;51.684;6.954;2022-07-29T09:09:02;15.40;99.90
6270;DHT22;3168;51.684;6.954;2022-07-29T09:11:40;15.40;99.90
6270;DHT22;3168;51.684;6.954;2022-07-29T09:14:18;15.50;99.90
6270;DHT22;3168;51.684;6.954;2022-07-29T09:16:56;15.50;99.90
6270;DHT22;3168;51.684;6.954;2022-07-29T09:19:35;15.40;99.90
6270;DHT22;3168;51.684;6.954;2022-07-29T09:22:13;15.20;99.90
6270;DHT22;3168;51.684;6.954;2022-07-29T09:24:51;15.30;99.90
6270;DHT22;3168;51.684;6.954;2022-07-29T09:27:29;15.30;99.90
6270;DHT22;3168;51.684;6.954;2022-07-29T09:30:08;15.30;99.90
6270;DHT22;3168;51.684;6.954;2022-07-29T09:32:54;15.30;99.90
6270;DHT22;3168;51.684;6.954;2022-07-29T09:35:31;15.30;99.90
6270;DHT22;3168;51.684;6.954;2022-07-29T09:38:10;15.20;99.90
6270;DHT22;3168;51.684;6.954;2022-07-29T09:40:56;15.20;99.90
6270;DHT22;3168;51.684;6.954;2022-07-29T09:43:35;15.20;99.90
6270;DHT22;3168;51.684;6.954;2022-07-29T09:46:13;15.20;99.90
6270;DHT22;3168;51.684;6.954;2022-07-29T09:51:42;15.30;99.90
6270;DHT22;3168;51.684;6.954;2022-07-29T09:54:23;15.50;99.90
6270;DHT22;3168;51.684;6.954;2022-07-29T09:57:02;15.50;99.90
6270;DHT22;3168;51.684;6.954;2022-07-29T09:59:39;15.60;99.90
6270;DHT22;3168;51.684;6.954;2022-07-29T10:02:18;15.60;99.90
6270;DHT22;3168;51.684;6.954;2022-07-29T10:04:56;15.70;99.90
6270;DHT22;3168;51.684;6.954;2022-07-29T10:07:44;15.70;99.90
6270;DHT22;3168;51.684;6.954;2022-07-29T10:10:25;15.80;99.90
6270;DHT22;3168;51.684;6.954;2022-07-29T10:13:04;15.80;99.90
6270;DHT22;3168;51.684;6.954;2022-07-29T10:15:41;15.80;99.90
6270;DHT22;3168;51.684;6.954;2022-07-29T10:18:18;15.80;99.90
6270;DHT22;3168;51.684;6.954;2022-07-29T10:20:57;16.10;99.90
6270;DHT22;3168;51.684;6.954;2022-07-29T10:23:35;16.20;99.90
6270;DHT22;3168;51.684;6.954;2022-07-29T10:26:13;16.40;99.90
6270;DHT22;3168;51.684;6.954;2022-07-29T10:28:51;16.30;99.90
6270;DHT22;3168;51.684;6.954;2022-07-29T10:31:36;16.40;99.90
6270;DHT22;3168;51.684;6.954;2022-07-29T10:34:29;16.40;99.90
6270;DHT22;3168;51.684;6.954;2022-07-29T10:37:08;16.50;99.90
6270;DHT22;3168;51.684;6.954;2022-07-29T10:40:06;16.50;99.90
6270;DHT22;3168;51.684;6.954;2022-07-29T10:42:40;16.60;99.90
6270;DHT22;3168;51.684;6.954;2022-07-29T10:45:18;16.80;99.90
6270;DHT22;3168;51.684;6.954;2022-07-29T10:48:03;16.90;99.90
6270;DHT22;3168;51.684;6.954;2022-07-29T10:51:01;17.00;99.90
6270;DHT22;3168;51.684;6.954;2022-07-29T10:53:47;17.00;99.90
6270;DHT22;3168;51.684;6.954;2022-07-29T10:56:26;17.10;99.90
6270;DHT22;3168;51.684;6.954;2022-07-29T11:01:55;17.00;97.90
6270;DHT22;3168;51.684;6.954;2022-07-29T11:07:37;17.20;99.90
6270;DHT22;3168;51.684;6.954;2022-07-29T11:10:22;16.90;98.60
6270;DHT22;3168;51.684;6.954;2022-07-29T11:13:00;16.90;99.80
6270;DHT22;3168;51.684;6.954;2022-07-29T11:15:52;17.00;99.90
6270;DHT22;3168;51.684;6.954;2022-07-29T11:18:29;17.20;99.90
6270;DHT22;3168;51.684;6.954;2022-07-29T11:21:09;17.40;99.90
6270;DHT22;3168;51.684;6.954;2022-07-29T11:23:46;17.50;97.00
6270;DHT22;3168;51.684;6.954;2022-07-29T11:26:24;17.60;95.60
6270;DHT22;3168;51.684;6.954;2022-07-29T11:29:03;17.70;91.50
6270;DHT22;3168;51.684;6.954;2022-07-29T11:31:41;17.80;92.30
6270;DHT22;3168;51.684;6.954;2022-07-29T11:34:23;17.90;90.60
6270;DHT22;3168;51.684;6.954;2022-07-29T11:37:14;17.80;81.80
6270;DHT22;3168;51.684;6.954;2022-07-29T11:40:08;18.00;89.20
6270;DHT22;3168;51.684;6.954;2022-07-29T11:42:46;18.20;92.30
6270;DHT22;3168;51.684;6.954;2022-07-29T11:45:25;18.30;88.00
6270;DHT22;3168;51.684;6.954;2022-07-29T11:48:03;18.60;85.40
6270;DHT22;3168;51.684;6.954;2022-07-29T11:50:41;18.70;61.70
6270;DHT22;3168;51.684;6.954;2022-07-29T11:53:19;18.80;69.00
6270;DHT22;3168;51.684;6.954;2022-07-29T11:55:57;18.90;55.20
6270;DHT22;3168;51.684;6.954;2022-07-29T11:58:36;19.00;48.10
6270;DHT22;3168;51.684;6.954;2022-07-29T12:01:15;19.20;42.50
6270;DHT22;3168;51.684;6.954;2022-07-29T12:04:01;19.40;51.30
6270;DHT22;3168;51.684;6.954;2022-07-29T12:06:30;19.60;40.30
6270;DHT22;3168;51.684;6.954;2022-07-29T12:09:08;19.90;41.00
6270;DHT22;3168;51.684;6.954;2022-07-29T12:11:47;20.10;33.30
6270;DHT22;3168;51.684;6.954;2022-07-29T12:14:28;20.40;22.60
6270;DHT22;3168;51.684;6.954;2022-07-29T12:17:06;20.60;15.70
6270;DHT22;3168;51.684;6.954;2022-07-29T12:19:44;20.60;19.10
6270;DHT22;3168;51.684;6.954;2022-07-29T12:22:25;20.70;21.30
6270;DHT22;3168;51.684;6.954;2022-07-29T12:25:03;20.70;21.30
6270;DHT22;3168;51.684;6.954;2022-07-29T12:27:41;20.50;14.10
6270;DHT22;3168;51.684;6.954;2022-07-29T12:30:19;20.20;13.90
6270;DHT22;3168;51.684;6.954;2022-07-29T12:32:57;20.40;13.10
6270;DHT22;3168;51.684;6.954;2022-07-29T12:35:35;20.60;15.40
6270;DHT22;3168;51.684;6.954;2022-07-29T12:38:13;21.00;12.50
6270;DHT22;3168;51.684;6.954;2022-07-29T12:40:51;21.20;6.80
6270;DHT22;3168;51.684;6.954;2022-07-29T12:43:30;20.80;9.70
6270;DHT22;3168;51.684;6.954;2022-07-29T12:46:12;20.20;22.40
6270;DHT22;3168;51.684;6.954;2022-07-29T12:48:51;20.20;18.70
6270;DHT22;3168;51.684;6.954;2022-07-29T12:51:31;20.30;24.30
6270;DHT22;3168;51.684;6.954;2022-07-29T12:54:10;20.40;13.60
6270;DHT22;3168;51.684;6.954;2022-07-29T12:56:47;20.50;9.50
6270;DHT22;3168;51.684;6.954;2022-07-29T12:59:25;20.50;12.30
6270;DHT22;3168;51.684;6.954;2022-07-29T13:02:03;20.70;23.20
6270;DHT22;3168;51.684;6.954;2022-07-29T13:04:41;20.80;23.00
6270;DHT22;3168;51.684;6.954;2022-07-29T13:07:25;20.50;12.30
6270;DHT22;3168;51.684;6.954;2022-07-29T13:10:10;20.70;22.20
6270;DHT22;3168;51.684;6.954;2022-07-29T13:15:40;20.70;34.50
6270;DHT22;3168;51.684;6.954;2022-07-29T13:18:26;20.90;33.60
6270;DHT22;3168;51.684;6.954;2022-07-29T13:21:11;20.90;19.00
6270;DHT22;3168;51.684;6.954;2022-07-29T13:23:48;20.70;13.90
6270;DHT22;3168;51.684;6.954;2022-07-29T13:26:26;20.70;18.30
6270;DHT22;3168;51.684;6.954;2022-07-29T13:29:04;20.70;17.80
6270;DHT22;3168;51.684;6.954;2022-07-29T13:31:42;20.70;20.60
6270;DHT22;3168;51.684;6.954;2022-07-29T13:34:20;20.70;19.50
6270;DHT22;3168;51.684;6.954;2022-07-29T13:36:58;20.60;12.30
6270;DHT22;3168;51.684;6.954;2022-07-29T13:39:36;20.50;14.90
6270;DHT22;3168;51.684;6.954;2022-07-29T13:42:15;20.50;16.40
6270;DHT22;3168;51.684;6.954;2022-07-29T13:44:53;20.60;13.40
6270;DHT22;3168;51.684;6.954;2022-07-29T13:47:31;20.70;12.40
6270;DHT22;3168;51.684;6.954;2022-07-29T13:50:09;20.90;9.50
6270;DHT22;3168;51.684;6.954;2022-07-29T13:52:47;21.00;12.10
6270;DHT22;3168;51.684;6.954;2022-07-29T13:55:25;21.10;1.00
6270;DHT22;3168;51.684;6.954;2022-07-29T13:58:03;21.00;1.00
6270;DHT22;3168;51.684;6.954;2022-07-29T14:00:41;21.10;1.00
6270;DHT22;3168;51.684;6.954;2022-07-29T14:03:20;21.20;1.00
6270;DHT22;3168;51.684;6.954;2022-07-29T14:05:58;20.90;1.00
6270;DHT22;3168;51.684;6.954;2022-07-29T14:08:37;20.80;1.00
6270;DHT22;3168;51.684;6.954;2022-07-29T14:11:15;20.80;1.00
6270;DHT22;3168;51.684;6.954;2022-07-29T14:13:53;20.70;1.00
6270;DHT22;3168;51.684;6.954;2022-07-29T14:16:31;20.70;1.00
6270;DHT22;3168;51.684;6.954;2022-07-29T14:19:09;20.80;1.00
6270;DHT22;3168;51.684;6.954;2022-07-29T14:21:48;21.00;1.00
6270;DHT22;3168;51.684;6.954;2022-07-29T14:24:26;21.00;1.00
6270;DHT22;3168;51.684;6.954;2022-07-29T14:27:04;21.00;1.00
6270;DHT22;3168;51.684;6.954;2022-07-29T14:29:42;21.10;1.00
6270;DHT22;3168;51.684;6.954;2022-07-29T14:32:20;21.20;1.00
6270;DHT22;3168;51.684;6.954;2022-07-29T14:34:58;21.40;1.00
6270;DHT22;3168;51.684;6.954;2022-07-29T14:37:36;21.50;1.00
6270;DHT22;3168;51.684;6.954;2022-07-29T14:40:14;21.80;1.00
6270;DHT22;3168;51.684;6.954;2022-07-29T14:42:53;22.50;1.00
6270;DHT22;3168;51.684;6.954;2022-07-29T14:45:31;22.50;1.00
6270;DHT22;3168;51.684;6.954;2022-07-29T14:48:09;22.70;1.00
6270;DHT22;3168;51.684;6.954;2022-07-29T14:50:47;22.30;1.00
6270;DHT22;3168;51.684;6.954;2022-07-29T14:53:25;22.20;1.00
6270;DHT22;3168;51.684;6.954;2022-07-29T14:56:04;22.80;1.00
6270;DHT22;3168;51.684;6.954;2022-07-29T14:58:42;23.80;1.00
6270;DHT22;3168;51.684;6.954;2022-07-29T15:01:20;24.00;1.00
6270;DHT22;3168;51.684;6.954;2022-07-29T15:03:58;23.20;1.00
6270;DHT22;3168;51.684;6.954;2022-07-29T15:06:36;23.70;1.00
6270;DHT22;3168;51.684;6.954;2022-07-29T15:09:14;24.00;1.00
6270;DHT22;3168;51.684;6.954;2022-07-29T15:11:53;23.70;1.00
6270;DHT22;3168;51.684;6.954;2022-07-29T15:14:31;23.70;1.00
6270;DHT22;3168;51.684;6.954;2022-07-29T15:17:10;23.80;1.00
6270;DHT22;3168;51.684;6.954;2022-07-29T15:19:48;23.90;1.00
6270;DHT22;3168;51.684;6.954;2022-07-29T15:22:26;24.10;1.00
6270;DHT22;3168;51.684;6.954;2022-07-29T15:25:05;23.90;1.00
6270;DHT22;3168;51.684;6.954;2022-07-29T15:27:43;24.10;1.00
6270;DHT22;3168;51.684;6.954;2022-07-29T15:30:21;23.90;1.00
6270;DHT22;3168;51.684;6.954;2022-07-29T15:33:01;24.00;1.00
6270;DHT22;3168;51.684;6.954;2022-07-29T15:35:38;24.80;1.00
6270;DHT22;3168;51.684;6.954;2022-07-29T15:38:16;25.70;1.00
6270;DHT22;3168;51.684;6.954;2022-07-29T15:40:54;26.50;1.00
6270;DHT22;3168;51.684;6.954;2022-07-29T15:43:32;26.00;1.00
6270;DHT22;3168;51.684;6.954;2022-07-29T15:46:13;26.10;1.00
6270;DHT22;3168;51.684;6.954;2022-07-29T15:48:57;26.80;1.00
6270;DHT22;3168;51.684;6.954;2022-07-29T15:51:35;26.40;1.00
6270;DHT22;3168;51.684;6.954;2022-07-29T15:54:13;25.90;1.00
6270;DHT22;3168;51.684;6.954;2022-07-29T15:56:51;24.80;1.00
6270;DHT22;3168;51.684;6.954;2022-07-29T15:59:29;24.60;1.00
6270;DHT22;3168;51.684;6.954;2022-07-29T16:02:07;24.70;1.00
6270;DHT22;3168;51.684;6.954;2022-07-29T16:04:46;24.60;1.00
6270;DHT22;3168;51.684;6.954;2022-07-29T16:07:24;24.00;1.00
6270;DHT22;3168;51.684;6.954;2022-07-29T16:10:03;23.70;1.00
6270;DHT22;3168;51.684;6.954;2022-07-29T16:12:41;23.40;1.00
6270;DHT22;3168;51.684;6.954;2022-07-29T16:15:19;23.30;1.00
6270;DHT22;3168;51.684;6.954;2022-07-29T16:17:57;23.20;1.00
6270;DHT22;3168;51.684;6.954;2022-07-29T16:20:35;23.20;1.00
6270;DHT22;3168;51.684;6.954;2022-07-29T16:23:14;23.50;1.00
6270;DHT22;3168;51.684;6.954;2022-07-29T16:25:52;23.70;1.00
6270;DHT22;3168;51.684;6.954;2022-07-29T16:28:30;23.60;1.00
6270;DHT22;3168;51.684;6.954;2022-07-29T16:31:08;23.70;1.00
6270;DHT22;3168;51.684;6.954;2022-07-29T16:33:47;23.70;1.00
6270;DHT22;3168;51.684;6.954;2022-07-29T16:36:25;23.60;1.00
6270;DHT22;3168;51.684;6.954;2022-07-29T16:39:03;23.70;1.00
6270;DHT22;3168;51.684;6.954;2022-07-29T16:41:41;23.70;1.00
6270;DHT22;3168;51.684;6.954;2022-07-29T16:44:20;23.70;1.00
6270;DHT22;3168;51.684;6.954;2022-07-29T16:46:58;23.80;1.00
6270;DHT22;3168;51.684;6.954;2022-07-29T16:49:36;23.90;1.00
6270;DHT22;3168;51.684;6.954;2022-07-29T16:52:15;23.90;1.00
6270;DHT22;3168;51.684;6.954;2022-07-29T16:54:53;23.90;1.00
6270;DHT22;3168;51.684;6.954;2022-07-29T16:57:31;24.00;1.00
6270;DHT22;3168;51.684;6.954;2022-07-29T17:00:10;23.80;1.00
6270;DHT22;3168;51.684;6.954;2022-07-29T17:02:48;23.70;1.00
6270;DHT22;3168;51.684;6.954;2022-07-29T17:05:27;23.60;1.00
6270;DHT22;3168;51.684;6.954;2022-07-29T17:08:05;23.70;1.00
6270;DHT22;3168;51.684;6.954;2022-07-29T17:10:43;23.70;1.00
6270;DHT22;3168;51.684;6.954;2022-07-29T17:13:21;23.60;1.00
6270;DHT22;3168;51.684;6.954;2022-07-29T17:15:59;23.70;1.00
6270;DHT22;3168;51.684;6.954;2022-07-29T17:18:37;23.60;1.00
6270;DHT22;3168;51.684;6.954;2022-07-29T17:21:15;23.70;1.00
6270;DHT22;3168;51.684;6.954;2022-07-29T17:23:53;23.70;1.00
6270;DHT22;3168;51.684;6.954;2022-07-29T17:26:32;23.50;1.00
6270;DHT22;3168;51.684;6.954;2022-07-29T17:29:10;23.50;1.00
6270;DHT22;3168;51.684;6.954;2022-07-29T17:31:48;23.40;1.00
6270;DHT22;3168;51.684;6.954;2022-07-29T17:34:26;23.30;1.00
6270;DHT22;3168;51.684;6.954;2022-07-29T17:37:05;23.20;1.00
6270;DHT22;3168;51.684;6.954;2022-07-29T17:39:43;23.10;1.00